createdAt,value
2023-04-12T00:02:22.747Z,79.13
2023-04-12T00:04:55.349Z,79.22
2023-04-12T00:07:23.190Z,79.14
2023-04-12T00:09:50.863Z,79.13
2023-04-12T00:12:20.731Z,79.46
2023-04-12T00:14:48.571Z,79.98
2023-04-12T00:17:16.052Z,79.72
2023-04-12T00:19:44.778Z,79.69
2023-04-12T00:22:12.997Z,79.91
2023-04-12T00:24:40.810Z,80.24
2023-04-12T00:27:08.588Z,79.96
2023-04-12T00:29:41.143Z,79.52
2023-04-12T00:32:10.097Z,79.49
2023-04-12T00:34:37.640Z,79.53
2023-04-12T00:37:05.186Z,79.64
2023-04-12T00:39:32.677Z,79.08
2023-04-12T00:42:04.398Z,80.20
2023-04-12T00:44:32.952Z,81.87
2023-04-12T00:47:02.701Z,82.41
2023-04-12T00:49:30.789Z,81.61
2023-04-12T00:52:03.175Z,81.09
2023-04-12T00:54:32.256Z,81.01
2023-04-12T00:57:00.236Z,80.82
2023-04-12T00:59:27.788Z,80.94
2023-04-12T01:01:56.150Z,81.34
2023-04-12T01:04:26.418Z,80.07
2023-04-12T01:07:10.137Z,80.96
2023-04-12T01:09:46.615Z,80.59
2023-04-12T01:12:27.099Z,80.95
2023-04-12T01:15:06.432Z,81.12
2023-04-12T01:17:38.179Z,81.37
2023-04-12T01:20:14.320Z,81.88
2023-04-12T01:23:10.446Z,81.77
2023-04-12T01:25:51.107Z,81.80
2023-04-12T01:28:22.055Z,81.97
2023-04-12T01:30:51.473Z,81.64
2023-04-12T01:33:23.193Z,81.66
2023-04-12T01:35:50.986Z,81.72
2023-04-12T01:38:18.709Z,82.28
2023-04-12T01:40:46.252Z,81.65
2023-04-12T01:43:15.880Z,81.35
2023-04-12T01:45:44.868Z,81.71
2023-04-12T01:48:13.333Z,81.57
2023-04-12T01:50:45.936Z,80.80
2023-04-12T01:53:15.210Z,81.30
2023-04-12T01:55:45.819Z,81.83
2023-04-12T01:58:13.719Z,81.89
2023-04-12T02:00:44.828Z,82.12
2023-04-12T02:03:13.796Z,82.11
2023-04-12T02:05:41.588Z,82.25
2023-04-12T02:08:09.164Z,82.05
2023-04-12T02:10:39.748Z,82.87
2023-04-12T02:13:07.614Z,82.97
2023-04-12T02:15:37.123Z,82.75
2023-04-12T02:18:06.055Z,82.12
2023-04-12T02:20:35.538Z,82.75
2023-04-12T02:23:03.089Z,81.90
2023-04-12T02:25:30.921Z,82.04
2023-04-12T02:27:58.450Z,82.61
2023-04-12T02:30:26.002Z,82.24
2023-04-12T02:32:56.188Z,81.99
2023-04-12T02:35:29.029Z,82.52
2023-04-12T02:38:03.631Z,82.65
2023-04-12T02:40:31.189Z,83.33
2023-04-12T02:42:59.320Z,83.24
2023-04-12T02:45:27.893Z,82.92
2023-04-12T02:47:56.639Z,82.77
2023-04-12T02:50:30.410Z,82.80
2023-04-12T02:53:10.408Z,82.16
2023-04-12T02:55:40.413Z,81.43
2023-04-12T02:58:10.064Z,81.62
2023-04-12T03:00:45.768Z,81.86
2023-04-12T03:03:17.894Z,82.35
2023-04-12T03:05:48.641Z,82.04
2023-04-12T03:08:18.128Z,82.09
2023-04-12T03:10:52.778Z,82.18
2023-04-12T03:13:21.106Z,81.49
2023-04-12T03:15:56.643Z,81.47
2023-04-12T03:18:27.940Z,82.01
2023-04-12T03:20:57.035Z,81.78
2023-04-12T03:23:25.068Z,82.08
2023-04-12T03:26:04.915Z,81.48
2023-04-12T03:28:35.883Z,81.32
2023-04-12T03:31:06.403Z,81.58
2023-04-12T03:33:42.714Z,81.31
2023-04-12T03:36:22.176Z,81.86
2023-04-12T03:38:55.361Z,81.99
2023-04-12T03:41:23.369Z,82.04
2023-04-12T03:43:50.967Z,82.51
2023-04-12T03:46:19.726Z,81.91
2023-04-12T03:48:54.549Z,81.74
2023-04-12T03:51:27.104Z,82.01
2023-04-12T03:54:02.705Z,82.12
2023-04-12T03:56:35.600Z,81.85
2023-04-12T03:59:07.754Z,82.13
2023-04-12T04:01:36.931Z,82.01
2023-04-12T04:04:06.585Z,83.16
2023-04-12T04:06:35.593Z,83.62
2023-04-12T04:09:03.661Z,83.47
2023-04-12T04:11:36.052Z,82.95
2023-04-12T04:14:07.457Z,82.68
2023-04-12T04:16:35.883Z,82.89
2023-04-12T04:19:15.641Z,82.71
2023-04-12T04:21:47.508Z,81.94
2023-04-12T04:24:15.279Z,81.71
2023-04-12T04:26:47.204Z,81.09
2023-04-12T04:29:23.595Z,81.41
2023-04-12T04:31:51.393Z,81.00
2023-04-12T04:34:19.447Z,80.93
2023-04-12T04:36:50.044Z,81.15
2023-04-12T04:39:24.410Z,81.53
2023-04-12T04:41:54.778Z,81.20
2023-04-12T04:44:38.297Z,81.17
2023-04-12T04:47:08.579Z,80.80
2023-04-12T04:49:36.974Z,80.66
2023-04-12T04:52:13.157Z,80.27
2023-04-12T04:54:41.567Z,81.12
2023-04-12T04:57:11.630Z,80.95
2023-04-12T04:59:40.920Z,81.41
2023-04-12T05:02:18.525Z,81.31
2023-04-12T05:04:46.272Z,81.15
2023-04-12T05:07:18.840Z,80.63
2023-04-12T05:09:48.676Z,80.74
2023-04-12T05:12:17.551Z,80.53
2023-04-12T05:14:51.841Z,80.15
2023-04-12T05:17:19.776Z,80.23
2023-04-12T05:19:47.698Z,80.14
2023-04-12T05:22:22.568Z,79.90
2023-04-12T05:24:51.591Z,80.45
2023-04-12T05:27:19.127Z,80.80
2023-04-12T05:29:48.601Z,80.96
2023-04-12T05:32:19.105Z,80.70
2023-04-12T05:34:47.705Z,80.00
2023-04-12T05:37:15.407Z,80.25
2023-04-12T05:39:43.651Z,80.53
2023-04-12T05:42:12.508Z,80.38
2023-04-12T05:44:40.438Z,80.97
2023-04-12T05:47:12.207Z,81.16
2023-04-12T05:49:39.913Z,80.94
2023-04-12T05:52:10.476Z,80.93
2023-04-12T05:54:38.114Z,80.57
2023-04-12T05:57:07.320Z,80.39
2023-04-12T05:59:36.337Z,80.26
2023-04-12T06:02:03.982Z,80.42
2023-04-12T06:04:48.857Z,80.20
2023-04-12T06:07:19.213Z,79.99
2023-04-12T06:09:47.361Z,79.75
2023-04-12T06:12:14.981Z,79.51
2023-04-12T06:14:43.855Z,79.53
2023-04-12T06:17:11.679Z,79.10
2023-04-12T06:19:40.897Z,79.01
2023-04-12T06:22:08.426Z,78.85
2023-04-12T06:24:36.774Z,78.42
2023-04-12T06:27:04.488Z,77.99
2023-04-12T06:29:32.991Z,78.60
2023-04-12T06:32:01.899Z,78.51
2023-04-12T06:34:29.866Z,77.81
2023-04-12T06:37:02.028Z,78.11
2023-04-12T06:39:29.513Z,77.86
2023-04-12T06:41:57.592Z,77.81
2023-04-12T06:44:26.274Z,77.80
2023-04-12T06:46:53.851Z,77.21
2023-04-12T06:49:22.929Z,77.16
2023-04-12T06:51:50.367Z,76.86
2023-04-12T06:54:17.964Z,76.82
2023-04-12T06:56:45.474Z,76.77
2023-04-12T06:59:12.990Z,76.25
2023-04-12T07:01:41.934Z,76.23
2023-04-12T07:04:10.902Z,75.89
2023-04-12T07:06:40.060Z,75.47
2023-04-12T07:09:07.541Z,75.18
2023-04-12T07:11:35.529Z,74.52
2023-04-12T07:14:03.072Z,73.48
2023-04-12T07:16:31.075Z,73.80
2023-04-12T07:18:58.958Z,73.74
2023-04-12T07:21:27.559Z,73.20
2023-04-12T07:23:56.716Z,73.50
2023-04-12T07:26:24.300Z,73.42
2023-04-12T07:28:51.814Z,72.83
2023-04-12T07:31:19.458Z,72.39
2023-04-12T07:33:47.031Z,72.49
2023-04-12T07:36:16.621Z,72.78
2023-04-12T07:38:44.256Z,72.57
2023-04-12T07:41:13.169Z,72.44
2023-04-12T07:43:40.674Z,72.21
2023-04-12T07:46:08.844Z,72.24
2023-04-12T07:48:36.646Z,71.83
2023-04-12T07:51:04.641Z,71.96
2023-04-12T07:53:32.232Z,71.24
2023-04-12T07:55:59.762Z,70.65
2023-04-12T07:58:28.661Z,70.66
2023-04-12T08:00:59.185Z,70.39
2023-04-12T08:03:28.215Z,69.92
2023-04-12T08:05:55.811Z,70.16
2023-04-12T08:08:23.768Z,69.62
2023-04-12T08:10:52.515Z,69.57
2023-04-12T08:13:20.724Z,69.73
2023-04-12T08:15:51.540Z,69.89
2023-04-12T08:18:19.307Z,68.69
2023-04-12T08:20:49.123Z,68.26
2023-04-12T08:23:16.801Z,67.93
2023-04-12T08:25:44.300Z,68.41
2023-04-12T08:28:12.337Z,66.96
2023-04-12T08:30:39.900Z,67.08
2023-04-12T08:33:08.721Z,67.00
2023-04-12T08:35:36.256Z,66.95
2023-04-12T08:38:07.629Z,67.01
2023-04-12T08:40:35.215Z,66.60
2023-04-12T08:43:04.425Z,66.39
2023-04-12T08:45:33.183Z,66.55
2023-04-12T08:48:01.544Z,66.33
2023-04-12T08:50:30.607Z,67.15
2023-04-12T08:52:59.454Z,66.95
2023-04-12T08:55:27.143Z,66.24
2023-04-12T08:57:55.992Z,66.37
2023-04-12T09:00:23.676Z,67.03
2023-04-12T09:02:51.650Z,67.32
2023-04-12T09:05:19.387Z,66.76
2023-04-12T09:07:48.322Z,65.99
2023-04-12T09:10:31.282Z,66.22
2023-04-12T09:12:58.832Z,65.88
2023-04-12T09:15:26.345Z,65.66
2023-04-12T09:18:04.792Z,65.41
2023-04-12T09:20:32.493Z,66.00
2023-04-12T09:23:02.863Z,65.91
2023-04-12T09:25:44.673Z,65.82
2023-04-12T09:28:24.200Z,65.49
2023-04-12T09:30:52.934Z,64.97
2023-04-12T09:33:21.390Z,65.56
2023-04-12T09:35:49.335Z,65.45
2023-04-12T09:38:18.223Z,64.89
2023-04-12T09:40:45.922Z,63.65
2023-04-12T09:43:13.450Z,63.41
2023-04-12T09:45:41.085Z,62.52
2023-04-12T09:48:08.983Z,62.78
2023-04-12T09:50:36.680Z,62.25
2023-04-12T09:53:06.198Z,63.09
2023-04-12T09:55:35.120Z,62.51
2023-04-12T09:58:04.976Z,62.52
2023-04-12T10:00:34.360Z,62.91
2023-04-12T10:03:03.014Z,63.24
2023-04-12T10:05:31.096Z,64.40
2023-04-12T10:08:01.541Z,64.45
2023-04-12T10:10:31.718Z,64.63
2023-04-12T10:13:02.166Z,64.65
2023-04-12T10:15:30.449Z,65.05
2023-04-12T10:18:03.632Z,65.31
2023-04-12T10:20:31.495Z,66.09
2023-04-12T10:23:02.112Z,66.34
2023-04-12T10:25:31.588Z,67.19
2023-04-12T10:28:14.524Z,68.42
2023-04-12T10:30:42.231Z,69.72
2023-04-12T10:33:14.600Z,70.88
2023-04-12T10:35:51.786Z,71.52
2023-04-12T10:38:19.837Z,71.12
2023-04-12T10:41:13.582Z,72.79
2023-04-12T10:43:43.395Z,72.48
2023-04-12T10:46:44.379Z,73.10
2023-04-12T10:49:12.529Z,73.51
2023-04-12T10:51:40.578Z,74.35
2023-04-12T10:54:35.150Z,75.17
2023-04-12T10:57:04.039Z,76.89
2023-04-12T10:59:57.479Z,77.11
2023-04-12T11:02:25.376Z,76.81
2023-04-12T11:05:10.014Z,76.97
2023-04-12T11:07:56.234Z,78.59
2023-04-12T11:10:42.402Z,79.82
2023-04-12T11:13:17.097Z,79.26
2023-04-12T11:15:46.006Z,80.21
2023-04-12T11:18:13.614Z,79.56
2023-04-12T11:20:41.385Z,80.27
2023-04-12T11:23:11.296Z,79.68
2023-04-12T11:25:39.092Z,80.38
2023-04-12T11:28:17.296Z,80.49
2023-04-12T11:30:54.617Z,80.39
2023-04-12T11:33:35.324Z,79.93
2023-04-12T11:36:05.753Z,78.90
2023-04-12T11:38:33.532Z,77.99
2023-04-12T11:41:01.050Z,77.55
2023-04-12T11:43:28.714Z,78.54
2023-04-12T11:46:00.830Z,78.26
2023-04-12T11:48:28.771Z,79.19
2023-04-12T11:51:07.665Z,79.46
2023-04-12T11:53:38.130Z,78.25
2023-04-12T11:56:06.145Z,78.28
2023-04-12T11:58:33.908Z,77.94
2023-04-12T12:01:03.005Z,77.80
2023-04-12T12:03:31.070Z,77.48
2023-04-12T12:05:59.568Z,77.92
2023-04-12T12:08:27.370Z,77.90
2023-04-12T12:11:06.988Z,77.04
2023-04-12T12:13:45.697Z,76.39
2023-04-12T12:16:14.729Z,75.36
2023-04-12T12:18:42.320Z,74.98
2023-04-12T12:21:10.851Z,75.15
2023-04-12T12:23:38.976Z,76.68
2023-04-12T12:26:18.612Z,75.27
2023-04-12T12:28:50.760Z,75.51
2023-04-12T12:31:21.937Z,75.68
2023-04-12T12:33:52.402Z,76.29
2023-04-12T12:36:20.868Z,76.06
2023-04-12T12:38:49.174Z,75.78
2023-04-12T12:41:18.133Z,75.59
2023-04-12T12:43:46.932Z,75.33
2023-04-12T12:46:14.770Z,75.05
2023-04-12T12:48:43.936Z,74.89
2023-04-12T12:51:12.169Z,75.04
2023-04-12T12:53:40.742Z,75.18
2023-04-12T12:56:10.090Z,74.84
2023-04-12T12:58:40.709Z,75.37
2023-04-12T13:01:08.796Z,75.50
2023-04-12T13:03:36.682Z,75.28
2023-04-12T13:06:06.081Z,75.58
2023-04-12T13:08:36.555Z,75.80
2023-04-12T13:11:04.085Z,76.05
2023-04-12T13:13:31.750Z,75.61
2023-04-12T13:15:59.326Z,75.63
2023-04-12T13:18:27.710Z,75.75
2023-04-12T13:20:55.261Z,75.00
2023-04-12T13:23:24.077Z,74.17
2023-04-12T13:25:53.037Z,74.33
2023-04-12T13:28:20.889Z,73.67
2023-04-12T13:30:49.310Z,74.21
2023-04-12T13:33:20.103Z,74.61
2023-04-12T13:35:49.172Z,74.74
2023-04-12T13:38:16.651Z,74.43
2023-04-12T13:40:45.479Z,74.82
2023-04-12T13:43:13.046Z,75.47
2023-04-12T13:45:40.688Z,75.42
2023-04-12T13:48:08.331Z,75.55
2023-04-12T13:50:36.096Z,75.07
2023-04-12T13:53:03.589Z,74.68
2023-04-12T13:55:31.087Z,74.24
2023-04-12T13:57:59.987Z,74.40
2023-04-12T14:00:27.656Z,74.20
2023-04-12T14:02:55.598Z,74.23
2023-04-12T14:05:23.298Z,74.40
2023-04-12T14:07:52.462Z,74.39
2023-04-12T14:10:19.925Z,74.83
2023-04-12T14:12:47.429Z,75.22
2023-04-12T14:15:16.432Z,75.34
2023-04-12T14:17:43.980Z,75.56
2023-04-12T14:20:12.573Z,75.79
2023-04-12T14:22:40.096Z,75.81
2023-04-12T14:25:09.319Z,76.08
2023-04-12T14:27:36.973Z,76.44
2023-04-12T14:30:06.219Z,76.46
2023-04-12T14:32:35.468Z,76.75
2023-04-12T14:35:04.187Z,77.03
2023-04-12T14:37:32.796Z,77.45
2023-04-12T14:40:00.334Z,77.99
2023-04-12T14:42:27.867Z,78.67
2023-04-12T14:44:55.370Z,78.93
2023-04-12T14:47:22.885Z,78.94
2023-04-12T14:49:51.778Z,78.74
2023-04-12T14:52:19.634Z,78.55
2023-04-12T14:54:47.171Z,78.69
2023-04-12T14:57:14.914Z,78.85
2023-04-12T14:59:42.521Z,78.63
2023-04-12T15:02:10.171Z,78.85
2023-04-12T15:04:38.141Z,79.01
2023-04-12T15:07:07.024Z,78.98
2023-04-12T15:09:34.959Z,79.09
2023-04-12T15:12:02.521Z,79.53
2023-04-12T15:14:30.050Z,79.31
2023-04-12T15:16:57.755Z,79.61
2023-04-12T15:19:25.616Z,79.42
2023-04-12T15:21:55.035Z,79.80
2023-04-12T15:24:24.443Z,80.70
2023-04-12T15:26:55.375Z,81.30
2023-04-12T15:29:24.257Z,81.66
2023-04-12T15:31:51.809Z,81.50
2023-04-12T15:34:19.518Z,81.85
2023-04-12T15:36:47.118Z,81.60
2023-04-12T15:39:14.960Z,81.59
2023-04-12T15:41:43.966Z,81.68
2023-04-12T15:44:13.433Z,81.48
2023-04-12T15:46:42.033Z,81.45
2023-04-12T15:49:10.163Z,81.64
2023-04-12T15:51:38.428Z,82.23
2023-04-12T15:54:06.755Z,82.61
2023-04-12T15:56:35.384Z,83.30
2023-04-12T15:59:04.467Z,83.84
2023-04-12T16:01:32.065Z,83.96
2023-04-12T16:04:00.017Z,84.53
2023-04-12T16:06:30.280Z,84.89
2023-04-12T16:08:58.179Z,85.26
2023-04-12T16:11:26.430Z,85.24
2023-04-12T16:13:54.942Z,84.85
2023-04-12T16:16:24.480Z,85.02
2023-04-12T16:18:53.079Z,85.15
2023-04-12T16:21:22.209Z,85.16
2023-04-12T16:23:51.135Z,85.17
2023-04-12T16:26:21.465Z,85.51
2023-04-12T16:28:49.262Z,85.23
2023-04-12T16:31:16.893Z,85.04
2023-04-12T16:33:45.876Z,84.97
2023-04-12T16:36:13.731Z,85.54
2023-04-12T16:38:41.247Z,86.62
2023-04-12T16:41:08.756Z,87.67
2023-04-12T16:43:36.356Z,88.66
2023-04-12T16:46:05.912Z,88.33
2023-04-12T16:48:33.823Z,87.81
2023-04-12T16:51:04.721Z,87.92
2023-04-12T16:53:32.285Z,87.75
2023-04-12T16:56:02.651Z,87.92
2023-04-12T16:58:31.397Z,87.94
2023-04-12T17:00:58.876Z,87.94
2023-04-12T17:03:26.587Z,87.77
2023-04-12T17:05:54.326Z,87.60
2023-04-12T17:08:23.147Z,87.40
2023-04-12T17:10:50.856Z,87.38
2023-04-12T17:13:20.404Z,87.75
2023-04-12T17:15:48.718Z,87.39
2023-04-12T17:18:16.436Z,87.36
2023-04-12T17:20:44.199Z,87.48
2023-04-12T17:23:12.353Z,87.37
2023-04-12T17:25:41.658Z,87.54
2023-04-12T17:28:09.478Z,87.46
2023-04-12T17:30:37.247Z,87.42
2023-04-12T17:33:07.277Z,87.30
2023-04-12T17:35:34.910Z,87.59
2023-04-12T17:38:02.426Z,87.71
2023-04-12T17:40:31.254Z,87.85
2023-04-12T17:43:00.263Z,88.10
2023-04-12T17:45:28.591Z,88.03
2023-04-12T17:47:56.269Z,87.99
2023-04-12T17:50:24.102Z,88.04
2023-04-12T17:52:51.728Z,88.15
2023-04-12T17:55:23.426Z,88.22
2023-04-12T17:57:51.086Z,88.23
2023-04-12T18:00:21.774Z,88.29
2023-04-12T18:02:50.090Z,88.15
2023-04-12T18:05:17.773Z,88.43
2023-04-12T18:07:45.276Z,88.41
2023-04-12T18:10:17.782Z,88.50
2023-04-12T18:12:46.472Z,88.55
2023-04-12T18:15:14.045Z,88.52
2023-04-12T18:17:43.013Z,88.76
2023-04-12T18:20:11.998Z,89.06
2023-04-12T18:22:39.665Z,89.03
2023-04-12T18:25:08.060Z,89.21
2023-04-12T18:27:35.646Z,89.20
2023-04-12T18:30:03.442Z,89.42
2023-04-12T18:32:35.140Z,89.68
2023-04-12T18:35:04.923Z,89.96
2023-04-12T18:37:32.502Z,91.22
2023-04-12T18:40:00.421Z,90.94
2023-04-12T18:42:27.962Z,90.88
2023-04-12T18:44:56.552Z,90.66
2023-04-12T18:47:24.216Z,89.17
2023-04-12T18:49:51.698Z,89.10
2023-04-12T18:52:20.638Z,89.23
2023-04-12T18:54:48.402Z,89.30
2023-04-12T18:57:18.505Z,89.65
2023-04-12T18:59:47.857Z,89.21
2023-04-12T19:02:16.006Z,88.11
2023-04-12T19:04:43.549Z,87.39
2023-04-12T19:07:11.298Z,87.83
2023-04-12T19:09:40.440Z,87.49
2023-04-12T19:12:08.404Z,87.20
2023-04-12T19:14:36.127Z,87.30
2023-04-12T19:17:04.106Z,85.90
2023-04-12T19:19:31.738Z,84.73
2023-04-12T19:21:59.196Z,85.08
2023-04-12T19:24:26.686Z,84.91
2023-04-12T19:26:56.062Z,84.73
2023-04-12T19:29:24.294Z,84.07
2023-04-12T19:31:53.675Z,83.75
2023-04-12T19:34:21.421Z,83.80
2023-04-12T19:36:49.581Z,83.41
2023-04-12T19:39:18.523Z,84.02
2023-04-12T19:41:48.489Z,84.03
2023-04-12T19:44:17.295Z,84.91
2023-04-12T19:46:44.888Z,84.94
2023-04-12T19:49:13.341Z,85.14
2023-04-12T19:51:40.883Z,84.87
2023-04-12T19:54:09.936Z,84.94
2023-04-12T19:56:37.698Z,85.16
2023-04-12T19:59:06.786Z,84.48
2023-04-12T20:01:43.083Z,85.40
2023-04-12T20:04:10.754Z,85.34
2023-04-12T20:06:38.705Z,85.07
2023-04-12T20:09:06.182Z,85.48
2023-04-12T20:11:33.731Z,85.57
2023-04-12T20:14:01.225Z,85.48
2023-04-12T20:16:28.925Z,85.94
2023-04-12T20:18:59.016Z,85.52
2023-04-12T20:21:27.838Z,85.98
2023-04-12T20:23:55.315Z,86.28
2023-04-12T20:26:23.008Z,85.56
2023-04-12T20:28:50.815Z,86.29
2023-04-12T20:31:19.411Z,86.72
2023-04-12T20:33:47.014Z,87.16
2023-04-12T20:36:15.898Z,86.88
2023-04-12T20:38:43.616Z,87.35
2023-04-12T20:41:11.609Z,87.87
2023-04-12T20:43:43.585Z,88.05
2023-04-12T20:46:15.546Z,88.33
2023-04-12T20:48:43.326Z,88.26
2023-04-12T20:51:13.624Z,88.56
2023-04-12T20:53:43.621Z,88.50
2023-04-12T20:56:11.086Z,88.83
2023-04-12T20:58:38.798Z,89.13
2023-04-12T21:01:07.340Z,89.10
2023-04-12T21:03:36.501Z,89.24
2023-04-12T21:06:06.749Z,89.72
2023-04-12T21:08:34.495Z,89.24
2023-04-12T21:11:03.639Z,89.17
2023-04-12T21:13:31.534Z,89.12
2023-04-12T21:16:01.173Z,89.32
2023-04-12T21:18:28.840Z,88.78
2023-04-12T21:20:59.530Z,89.05
2023-04-12T21:23:27.866Z,89.66
2023-04-12T21:25:56.071Z,89.90
2023-04-12T21:28:24.953Z,90.17
2023-04-12T21:30:55.048Z,90.21
2023-04-12T21:33:25.053Z,89.82
2023-04-12T21:35:54.369Z,90.24
2023-04-12T21:38:22.372Z,89.89
2023-04-12T21:40:49.975Z,90.34
2023-04-12T21:43:17.554Z,90.51
2023-04-12T21:45:46.628Z,90.30
2023-04-12T21:48:14.654Z,90.74
2023-04-12T21:50:42.428Z,91.16
2023-04-12T21:53:10.017Z,90.88
2023-04-12T21:55:37.701Z,90.92
2023-04-12T21:58:05.270Z,90.67
2023-04-12T22:00:33.021Z,90.50
2023-04-12T22:03:02.123Z,90.56
2023-04-12T22:05:30.227Z,90.54
2023-04-12T22:07:57.787Z,90.48
2023-04-12T22:10:25.682Z,90.24
2023-04-12T22:12:53.965Z,90.44
2023-04-12T22:15:21.712Z,90.74
2023-04-12T22:17:49.316Z,91.15
2023-04-12T22:20:18.316Z,90.63
2023-04-12T22:22:45.852Z,91.04
2023-04-12T22:25:15.309Z,90.42
2023-04-12T22:27:46.642Z,90.49
2023-04-12T22:30:14.658Z,90.37
2023-04-12T22:32:42.412Z,90.21
2023-04-12T22:35:10.685Z,90.17
2023-04-12T22:37:41.082Z,90.24
2023-04-12T22:40:12.214Z,90.42
2023-04-12T22:42:45.924Z,90.31
2023-04-12T22:45:13.877Z,90.40
2023-04-12T22:47:42.530Z,90.11
2023-04-12T22:50:11.105Z,89.50
2023-04-12T22:52:40.355Z,90.05
2023-04-12T22:55:09.319Z,90.03
2023-04-12T22:57:37.097Z,89.92
2023-04-12T23:00:06.260Z,90.24
2023-04-12T23:02:34.788Z,90.53
2023-04-12T23:05:02.892Z,90.62
2023-04-12T23:07:31.267Z,90.83
2023-04-12T23:10:01.982Z,90.80
2023-04-12T23:12:30.414Z,90.73
2023-04-12T23:14:57.969Z,90.93
2023-04-12T23:17:26.794Z,90.42
2023-04-12T23:19:54.418Z,90.54
2023-04-12T23:22:48.428Z,90.23
2023-04-12T23:25:38.866Z,90.28
2023-04-12T23:28:13.397Z,90.59
2023-04-12T23:30:44.033Z,90.33
2023-04-12T23:33:11.957Z,90.31
2023-04-12T23:35:40.081Z,90.38
2023-04-12T23:38:08.447Z,89.91
2023-04-12T23:40:37.293Z,89.35
2023-04-12T23:43:04.811Z,88.01
2023-04-12T23:45:32.323Z,86.97
2023-04-12T23:48:00.025Z,87.93
2023-04-12T23:50:27.821Z,87.82
2023-04-12T23:52:55.284Z,87.57
2023-04-12T23:55:22.786Z,87.52
2023-04-12T23:57:51.825Z,87.94
